Time;durP1;ratioP1;P1;durP2;ratioP2;P2;SDS_P1;SDS_P2;PMS_P1;PMS_P2;Temp;Humidity;BMP_temperature;BMP_pressure;BME280_temperature;BME280_humidity;BME280_pressure;Samples;Min_cycle;Max_cycle;Signal;HPM_P1;HPM_P2
2023/09/13 00:01:07;;;;;;;0.10;0.10;;;;;;;18.17;100.00;98847.97;5114029;28;20199;-56
2023/09/13 00:03:54;;;;;;;0.13;0.13;;;;;;;18.14;100.00;98839.38;5112392;28;20312;-56
2023/09/13 00:06:40;;;;;;;0.13;0.13;;;;;;;18.07;100.00;98839.16;5113580;28;20356;-56
2023/09/13 00:09:27;;;;;;;0.10;0.10;;;;;;;18.09;100.00;98847.91;5113865;28;20258;-56
2023/09/13 00:12:15;;;;;;;0.10;0.10;;;;;;;18.02;100.00;98852.16;5113510;28;20194;-56
2023/09/13 00:15:03;;;;;;;0.10;0.10;;;;;;;17.94;100.00;98841.38;5113817;28;20260;-56
2023/09/13 00:17:49;;;;;;;0.10;0.10;;;;;;;17.92;100.00;98852.25;5112496;28;20194;-56
2023/09/13 00:20:38;;;;;;;0.10;0.10;;;;;;;17.95;100.00;98861.81;5113736;28;20320;-56
2023/09/13 00:23:25;;;;;;;0.20;0.20;;;;;;;17.96;100.00;98867.03;5113730;28;20276;-57
2023/09/13 00:26:12;;;;;;;0.20;0.20;;;;;;;18.01;100.00;98866.56;5113575;28;20210;-56
2023/09/13 00:29:01;;;;;;;0.10;0.10;;;;;;;17.82;100.00;98869.38;5112446;28;20289;-56
2023/09/13 00:31:48;;;;;;;0.10;0.10;;;;;;;17.89;100.00;98871.31;5113591;28;20190;-56
2023/09/13 00:34:35;;;;;;;0.13;0.13;;;;;;;17.98;100.00;98880.28;5111847;28;20194;-56
2023/09/13 00:37:22;;;;;;;0.10;0.10;;;;;;;18.04;100.00;98874.28;5113519;28;20316;-56
2023/09/13 00:40:10;;;;;;;0.10;0.10;;;;;;;18.08;100.00;98867.66;5112450;28;20222;-56
2023/09/13 00:42:59;;;;;;;0.10;0.10;;;;;;;18.05;100.00;98869.78;5113487;28;20190;-57
2023/09/13 00:45:50;;;;;;;0.10;0.10;;;;;;;18.05;100.00;98869.78;5113686;28;20205;-56
2023/09/13 00:48:37;;;;;;;0.10;0.10;;;;;;;17.93;100.00;98866.47;5112123;28;20193;-56
2023/09/13 00:51:24;;;;;;;0.20;0.20;;;;;;;17.92;100.00;98864.81;5113347;28;20190;-57
2023/09/13 00:54:11;;;;;;;0.20;0.20;;;;;;;17.87;100.00;98862.59;5113485;28;20467;-56
2023/09/13 00:56:59;;;;;;;0.10;0.10;;;;;;;17.86;100.00;98863.59;5112065;28;20267;-56
2023/09/13 00:59:45;;;;;;;0.20;0.20;;;;;;;17.93;100.00;98861.13;5113343;28;20236;-56
2023/09/13 01:02:35;;;;;;;0.10;0.10;;;;;;;17.95;100.00;98862.69;5110948;28;20527;-56
2023/09/13 01:05:22;;;;;;;0.10;0.10;;;;;;;18.05;100.00;98859.06;5113038;28;20233;-56
2023/09/13 01:08:09;;;;;;;0.10;0.10;;;;;;;18.13;100.00;98846.56;5112908;28;20221;-56
2023/09/13 01:10:55;;;;;;;0.10;0.10;;;;;;;18.11;100.00;98847.72;5112228;28;20198;-56
2023/09/13 01:13:42;;;;;;;0.10;0.10;;;;;;;18.11;100.00;98848.56;5113157;28;20198;-56
2023/09/13 01:16:40;;;;;;;0.20;0.20;;;;;;;18.11;100.00;98847.72;5112248;28;20198;-56
2023/09/13 01:19:47;;;;;;;0.10;0.10;;;;;;;18.10;100.00;98851.41;5110900;28;20202;-57
2023/09/13 01:23:05;;;;;;;0.13;0.13;;;;;;;18.02;100.00;98855.69;5117114;28;20186;-56
2023/09/13 01:26:02;;;;;;;0.10;0.10;;;;;;;18.07;100.00;98844.53;5115997;28;20198;-56
2023/09/13 01:28:52;;;;;;;0.13;0.13;;;;;;;18.02;100.00;98846.81;5116987;28;20189;-57
2023/09/13 01:31:39;;;;;;;0.20;0.20;;;;;;;18.00;100.00;98848.81;5116990;28;20316;-57
2023/09/13 01:34:26;;;;;;;0.10;0.10;;;;;;;18.05;100.00;98859.06;5115598;28;20216;-56
2023/09/13 01:37:13;;;;;;;0.10;0.10;;;;;;;18.10;100.00;98872.84;5115856;28;20269;-57
2023/09/13 01:40:00;;;;;;;0.10;0.10;;;;;;;18.09;100.00;98874.69;5116869;28;20189;-57
2023/09/13 01:42:49;;;;;;;0.10;0.10;;;;;;;18.04;100.00;98868.94;5115793;28;20193;-56
2023/09/13 01:45:38;;;;;;;0.10;0.10;;;;;;;18.15;100.00;98871.41;5115739;28;20220;-57
2023/09/13 01:48:26;;;;;;;0.10;0.10;;;;;;;18.24;100.00;98875.03;5115018;28;20218;-56
2023/09/13 01:51:12;;;;;;;0.10;0.10;;;;;;;18.24;100.00;98875.88;5115605;28;20331;-56
2023/09/13 01:53:59;;;;;;;0.20;0.20;;;;;;;18.12;100.00;98871.69;5116738;28;20194;-56
2023/09/13 01:56:46;;;;;;;0.10;0.10;;;;;;;18.17;100.00;98879.31;5116459;28;20186;-56
2023/09/13 01:59:34;;;;;;;0.10;0.10;;;;;;;18.28;100.00;98876.38;5115412;28;20273;-56
2023/09/13 02:02:23;;;;;;;0.10;0.10;;;;;;;18.14;100.00;98876.91;5114070;28;20190;-56
2023/09/13 02:05:09;;;;;;;0.10;0.10;;;;;;;18.22;100.00;98880.50;5115110;28;20221;-56
2023/09/13 02:07:56;;;;;;;0.10;0.10;;;;;;;18.29;100.00;98886.09;5115111;28;20225;-56
2023/09/13 02:10:47;;;;;;;0.10;0.10;;;;;;;18.47;100.00;98886.94;5116210;28;20197;-56
2023/09/13 02:13:33;;;;;;;0.10;0.10;;;;;;;18.40;100.00;98910.00;5116144;28;20186;-56
2023/09/13 02:16:21;;;;;;;0.10;0.10;;;;;;;18.29;100.00;98911.09;5116141;28;20206;-57
2023/09/13 02:19:10;;;;;;;0.10;0.10;;;;;;;18.22;100.00;98915.38;5114766;28;20187;-57
2023/09/13 02:21:56;;;;;;;0.10;0.10;;;;;;;18.17;100.00;98917.69;5116037;28;20285;-57
2023/09/13 02:24:43;;;;;;;0.10;0.10;;;;;;;18.07;100.00;98919.59;5115949;28;20194;-57
2023/09/13 02:27:32;;;;;;;0.10;0.10;;;;;;;18.16;100.00;98921.34;5114713;28;20210;-57
2023/09/13 02:30:19;;;;;;;0.10;0.10;;;;;;;18.13;100.00;98918.13;5115827;28;20285;-57
2023/09/13 02:33:07;;;;;;;0.10;0.10;;;;;;;18.12;100.00;98911.06;5112132;28;20193;-57
2023/09/13 02:35:55;;;;;;;0.10;0.10;;;;;;;18.20;100.00;98901.28;5115643;28;20206;-56
2023/09/13 02:38:42;;;;;;;0.20;0.20;;;;;;;18.31;100.00;98909.09;5115587;28;20190;-57
2023/09/13 02:41:29;;;;;;;0.20;0.20;;;;;;;18.24;100.00;98912.56;5115623;28;20275;-57
2023/09/13 02:44:16;;;;;;;0.10;0.10;;;;;;;18.35;100.00;98923.03;5115520;28;20202;-57
2023/09/13 02:47:03;;;;;;;0.17;0.17;;;;;;;18.26;100.00;98932.00;5115418;28;20193;-57
2023/09/13 02:49:50;;;;;;;0.10;0.10;;;;;;;18.43;100.00;98944.59;5115402;28;20202;-57
2023/09/13 02:52:38;;;;;;;0.10;0.10;;;;;;;18.54;100.00;98941.66;5114288;28;20190;-57
2023/09/13 02:55:25;;;;;;;0.10;0.10;;;;;;;18.48;100.00;98946.78;5115323;28;20692;-57
2023/09/13 02:58:12;;;;;;;0.17;0.17;;;;;;;18.51;100.00;98939.28;5115298;28;20265;-57
2023/09/13 03:01:03;;;;;;;0.10;0.10;;;;;;;18.49;100.00;98946.63;5114087;28;20190;-57
2023/09/13 03:03:51;;;;;;;0.10;0.10;;;;;;;18.57;100.00;98953.91;5112828;28;20245;-56
2023/09/13 03:06:39;;;;;;;0.10;0.10;;;;;;;18.63;100.00;98955.16;5114778;28;20229;-57
2023/09/13 03:09:27;;;;;;;0.10;0.10;;;;;;;18.50;100.00;98952.84;5114647;28;20214;-57
2023/09/13 03:12:14;;;;;;;0.10;0.10;;;;;;;18.49;100.00;98956.53;5114130;28;20577;-56
2023/09/13 03:15:01;;;;;;;0.20;0.20;;;;;;;18.57;100.00;98959.28;5114030;28;20201;-57
2023/09/13 03:17:48;;;;;;;0.10;0.10;;;;;;;18.55;100.00;98951.41;5113442;28;20186;-57
2023/09/13 03:20:40;;;;;;;0.10;0.10;;;;;;;18.58;100.00;98947.56;5113847;28;20193;-57
2023/09/13 03:23:27;;;;;;;0.10;0.10;;;;;;;18.60;100.00;98946.41;5113871;28;20202;-57
2023/09/13 03:26:18;;;;;;;0.10;0.10;;;;;;;18.62;100.00;98942.72;5114697;28;20273;-56
2023/09/13 03:29:06;;;;;;;0.10;0.10;;;;;;;18.61;100.00;98949.91;5113448;28;20236;-57
2023/09/13 03:31:53;;;;;;;0.10;0.10;;;;;;;18.74;100.00;98944.22;5113561;28;20269;-57
2023/09/13 03:34:40;;;;;;;0.10;0.10;;;;;;;18.77;100.00;98941.19;5113466;28;20197;-56
2023/09/13 03:37:27;;;;;;;0.10;0.10;;;;;;;18.55;100.00;98939.81;5113545;28;20190;-56
2023/09/13 03:40:14;;;;;;;0.10;0.10;;;;;;;18.57;100.00;98933.28;5114482;28;20563;-56
2023/09/13 03:43:02;;;;;;;0.10;0.10;;;;;;;18.58;100.00;98937.66;5113964;28;20672;-56
2023/09/13 03:45:48;;;;;;;0.10;0.10;;;;;;;18.56;100.00;98936.97;5114348;28;20325;-56
2023/09/13 03:48:37;;;;;;;0.10;0.10;;;;;;;18.57;100.00;98948.56;5112849;28;20239;-57
2023/09/13 03:51:24;;;;;;;0.10;0.10;;;;;;;18.48;100.00;98941.44;5113240;28;20775;-57
2023/09/13 03:54:10;;;;;;;0.10;0.10;;;;;;;18.51;100.00;98943.78;5113217;28;20684;-57
2023/09/13 03:56:57;;;;;;;0.10;0.10;;;;;;;18.45;100.00;98937.22;5113081;28;20191;-57
2023/09/13 03:59:45;;;;;;;0.10;0.10;;;;;;;18.54;100.00;98947.03;5113078;28;20232;-57
2023/09/13 04:02:32;;;;;;;0.10;0.10;;;;;;;18.49;100.00;98938.59;5112821;28;20236;-57
2023/09/13 04:05:19;;;;;;;0.10;0.10;;;;;;;18.51;100.00;98941.94;5112777;28;20234;-57
2023/09/13 04:08:06;;;;;;;0.10;0.10;;;;;;;18.50;100.00;98940.28;5113832;28;20217;-56
2023/09/13 04:10:53;;;;;;;0.10;0.10;;;;;;;18.53;100.00;98942.66;5112755;28;20202;-57
2023/09/13 04:13:39;;;;;;;0.10;0.10;;;;;;;18.61;100.00;98947.22;5113848;28;20190;-56
2023/09/13 04:16:28;;;;;;;0.10;0.10;;;;;;;18.66;100.00;98949.50;5112791;28;20205;-56
2023/09/13 04:19:15;;;;;;;0.10;0.10;;;;;;;18.68;100.00;98951.03;5111450;28;20300;-56
2023/09/13 04:22:02;;;;;;;0.10;0.10;;;;;;;18.73;100.00;98953.25;5112635;28;20726;-57
2023/09/13 04:24:51;;;;;;;0.10;0.10;;;;;;;18.85;100.00;98950.16;5112722;28;20236;-57
2023/09/13 04:27:38;;;;;;;0.10;0.10;;;;;;;18.79;100.00;98953.47;5112676;28;20210;-57
2023/09/13 04:30:25;;;;;;;0.10;0.10;;;;;;;18.81;100.00;98958.66;5112575;28;20256;-57
2023/09/13 04:33:14;;;;;;;0.10;0.10;;;;;;;18.80;100.00;98956.97;5110921;28;20194;-57
2023/09/13 04:36:01;;;;;;;0.10;0.10;;;;;;;18.68;100.00;98964.44;5113491;28;20681;-57
2023/09/13 04:38:49;;;;;;;0.10;0.10;;;;;;;18.71;100.00;98958.75;5112536;28;20718;-57
2023/09/13 04:41:36;;;;;;;0.10;0.10;;;;;;;18.92;100.00;98961.13;5112507;28;20202;-57
2023/09/13 04:44:23;;;;;;;0.10;0.10;;;;;;;19.03;100.00;98966.25;5112583;28;20275;-57
2023/09/13 04:47:10;;;;;;;0.03;0.03;;;;;;;19.09;100.00;98957.53;5111103;28;20194;-57
2023/09/13 04:49:58;;;;;;;0.10;0.10;;;;;;;19.20;100.00;98948.38;5113098;28;20336;-56
2023/09/13 04:52:45;;;;;;;0.10;0.10;;;;;;;19.19;100.00;98945.84;5113376;28;20194;-56
2023/09/13 04:55:32;;;;;;;0.10;0.10;;;;;;;19.03;100.00;98949.28;5113971;28;20240;-57
2023/09/13 04:58:20;;;;;;;0.10;0.10;;;;;;;19.05;100.00;98942.75;5117675;28;20227;-57
2023/09/13 05:01:07;;;;;;;0.10;0.10;;;;;;;19.19;100.00;98949.38;5116521;28;20223;-57
2023/09/13 05:03:54;;;;;;;0.10;0.10;;;;;;;19.14;100.00;98955.25;5115106;28;20198;-57
2023/09/13 05:06:42;;;;;;;0.10;0.10;;;;;;;19.06;100.00;98952.50;5116982;28;20233;-56
2023/09/13 05:09:29;;;;;;;0.10;0.10;;;;;;;19.20;100.00;98948.38;5117252;28;20327;-56
2023/09/13 05:12:16;;;;;;;0.20;0.20;;;;;;;19.19;100.00;98948.53;5117353;28;20206;-56
2023/09/13 05:15:03;;;;;;;0.10;0.10;;;;;;;19.19;100.00;98946.69;5117273;28;20201;-56
2023/09/13 05:17:50;;;;;;;0.10;0.10;;;;;;;19.17;100.00;98951.38;5115884;28;20194;-57
2023/09/13 05:20:38;;;;;;;0.10;0.10;;;;;;;19.08;100.00;98949.66;5117192;28;20266;-56
2023/09/13 05:23:26;;;;;;;0.10;0.10;;;;;;;19.13;100.00;98956.25;5117093;28;20694;-57
2023/09/13 05:26:13;;;;;;;0.10;0.10;;;;;;;19.26;100.00;98957.66;5117038;28;20198;-57
2023/09/13 05:29:01;;;;;;;0.10;0.10;;;;;;;19.27;100.00;98956.66;5116841;28;20213;-57
2023/09/13 05:31:48;;;;;;;0.10;0.10;;;;;;;19.30;100.00;98959.00;5117096;28;20268;-57
2023/09/13 05:34:35;;;;;;;0.10;0.10;;;;;;;19.35;100.00;98954.03;5116880;28;20190;-57
2023/09/13 05:37:22;;;;;;;0.10;0.10;;;;;;;19.46;100.00;98967.19;5115983;28;20188;-57
2023/09/13 05:40:12;;;;;;;0.10;0.10;;;;;;;19.56;100.00;98961.72;5116768;28;20185;-57
2023/09/13 05:42:59;;;;;;;0.10;0.10;;;;;;;19.62;100.00;98958.41;5116721;28;20236;-57
2023/09/13 05:45:46;;;;;;;0.10;0.10;;;;;;;19.66;100.00;98965.13;5116571;28;20675;-57
2023/09/13 05:48:33;;;;;;;0.10;0.10;;;;;;;19.59;100.00;98959.56;5115250;28;20190;-57
2023/09/13 05:51:20;;;;;;;0.10;0.10;;;;;;;19.59;100.00;98958.69;5116824;28;20263;-57
2023/09/13 05:54:07;;;;;;;0.10;0.10;;;;;;;19.71;100.00;98958.28;5116336;28;20211;-57
2023/09/13 05:56:56;;;;;;;0.10;0.10;;;;;;;19.68;100.00;98961.28;5116447;28;20332;-57
2023/09/13 05:59:43;;;;;;;0.10;0.10;;;;;;;19.68;100.00;98958.59;5116465;28;20194;-57
2023/09/13 06:02:30;;;;;;;0.10;0.10;;;;;;;19.68;100.00;98957.75;5114892;28;20247;-56
2023/09/13 06:05:16;;;;;;;0.10;0.10;;;;;;;19.64;100.00;98957.22;5116065;28;20217;-57
2023/09/13 06:08:04;;;;;;;0.10;0.10;;;;;;;19.59;100.00;98966.75;5116292;28;20186;-57
2023/09/13 06:10:51;;;;;;;0.10;0.10;;;;;;;19.42;100.00;98982.78;5115794;28;20218;-57
2023/09/13 06:13:39;;;;;;;0.10;0.10;;;;;;;19.32;100.00;98978.53;5115776;28;20189;-57
2023/09/13 06:16:26;;;;;;;0.10;0.10;;;;;;;19.33;100.00;98981.03;5115781;28;20195;-56
2023/09/13 06:19:14;;;;;;;0.10;0.10;;;;;;;19.45;100.00;98978.94;5114617;28;20440;-56
2023/09/13 06:22:02;;;;;;;0.10;0.10;;;;;;;19.45;100.00;98978.94;5116019;28;20198;-56
2023/09/13 06:24:50;;;;;;;0.03;0.03;;;;;;;19.52;100.00;98980.00;5116001;28;20194;-56
2023/09/13 06:27:36;;;;;;;0.10;0.10;;;;;;;19.72;100.00;98978.78;5115826;28;20237;-56
2023/09/13 06:30:25;;;;;;;0.10;0.10;;;;;;;19.84;100.00;98979.31;5115622;28;20259;-56
2023/09/13 06:33:12;;;;;;;0.10;0.10;;;;;;;19.90;100.00;98976.00;5114550;28;20194;-56
2023/09/13 06:35:59;;;;;;;0.10;0.10;;;;;;;19.99;100.00;98969.66;5115605;28;20205;-56
2023/09/13 06:38:46;;;;;;;0.10;0.10;;;;;;;19.95;100.00;98965.59;5115682;28;20192;-57
2023/09/13 06:41:34;;;;;;;0.10;0.10;;;;;;;20.27;100.00;98966.72;5115562;28;20199;-57
2023/09/13 06:44:22;;;;;;;0.10;0.10;;;;;;;20.31;100.00;98968.06;5114265;28;20197;-56
2023/09/13 06:47:30;;;;;;;0.10;0.10;;;;;;;20.47;100.00;98964.59;5114182;28;20190;-56
2023/09/13 06:50:18;;;;;;;0.10;0.10;;;;;;;20.55;100.00;98962.72;5115118;28;20214;-56
2023/09/13 06:53:25;;;;;;;0.10;0.10;;;;;;;20.69;100.00;98955.84;5115420;28;20194;-56
2023/09/13 06:56:20;;;;;;;0.10;0.10;;;;;;;20.89;100.00;98958.22;5115400;28;20201;-56
2023/09/13 06:59:12;;;;;;;0.10;0.10;;;;;;;20.95;100.00;98944.94;5115290;28;20205;-56
2023/09/13 07:02:01;;;;;;;0.10;0.10;;;;;;;20.89;100.00;98956.38;5114427;28;20193;-56
2023/09/13 07:05:09;;;;;;;0.10;0.10;;;;;;;21.37;100.00;98949.25;5115033;28;20290;-57
2023/09/13 07:08:00;;;;;;;0.10;0.10;;;;;;;21.45;100.00;98948.41;5115098;28;20178;-56
2023/09/13 07:10:47;;;;;;;0.10;0.10;;;;;;;21.47;100.00;98949.06;5114755;28;20716;-56
2023/09/13 07:13:33;;;;;;;0.10;0.10;;;;;;;21.35;100.00;98943.22;5114969;28;20186;-57
2023/09/13 07:16:21;;;;;;;0.10;0.10;;;;;;;21.39;100.00;98937.28;5114968;28;20193;-56
2023/09/13 07:19:07;;;;;;;0.10;0.10;;;;;;;21.63;100.00;98944.47;5112930;28;20186;-56
2023/09/13 07:21:56;;;;;;;0.10;0.10;;;;;;;21.93;100.00;98947.38;5114716;28;20190;-57
2023/09/13 07:24:42;;;;;;;0.10;0.10;;;;;;;22.42;100.00;98956.06;5114775;28;20311;-57
2023/09/13 07:27:29;;;;;;;0.10;0.10;;;;;;;23.06;100.00;98944.94;5114801;28;20198;-57
2023/09/13 07:30:16;;;;;;;0.10;0.10;;;;;;;23.19;100.00;98933.53;5114382;28;20340;-56
2023/09/13 07:33:04;;;;;;;0.10;0.10;;;;;;;22.92;100.00;98937.66;5112955;28;20198;-56
2023/09/13 07:35:51;;;;;;;0.10;0.10;;;;;;;22.78;100.00;98937.41;5113489;28;20206;-56
2023/09/13 07:38:39;;;;;;;0.10;0.10;;;;;;;22.31;100.00;98937.59;5114329;28;20209;-57
2023/09/13 07:41:26;;;;;;;0.10;0.10;;;;;;;22.30;100.00;98956.66;5114329;28;20186;-57
2023/09/13 07:44:13;;;;;;;0.10;0.10;;;;;;;21.92;100.00;98965.44;5114435;28;20202;-56
2023/09/13 07:47:00;;;;;;;0.10;0.10;;;;;;;21.88;100.00;98961.38;5113138;28;20213;-57
2023/09/13 07:49:47;;;;;;;0.10;0.10;;;;;;;21.85;100.00;98971.69;5114118;28;20240;-57
2023/09/13 07:52:35;;;;;;;0.10;0.10;;;;;;;22.26;100.00;98972.34;5114205;28;20248;-57
2023/09/13 07:55:43;;;;;;;0.10;0.10;;;;;;;22.40;100.00;98974.31;5114058;28;20193;-56
2023/09/13 07:58:29;;;;;;;0.10;0.10;;;;;;;22.36;100.00;98972.97;5114123;28;20672;-57
2023/09/13 08:01:16;;;;;;;0.10;0.10;;;;;;;22.51;100.00;98968.50;5114158;28;20681;-57
2023/09/13 08:04:04;;;;;;;0.10;0.10;;;;;;;22.72;100.00;98957.03;5112714;28;20228;-57
2023/09/13 08:06:50;;;;;;;0.10;0.10;;;;;;;22.90;100.00;98955.91;5114057;28;20217;-56
2023/09/13 08:09:37;;;;;;;0.10;0.10;;;;;;;23.51;100.00;98957.50;5113871;28;20669;-56
2023/09/13 08:12:26;;;;;;;0.10;0.10;;;;;;;23.65;100.00;98947.75;5113887;28;20190;-57
2023/09/13 08:15:14;;;;;;;0.10;0.10;;;;;;;23.78;100.00;98949.78;5113905;28;20771;-57
2023/09/13 08:18:01;;;;;;;0.10;0.10;;;;;;;23.43;100.00;98957.56;5112461;28;20256;-56
2023/09/13 08:20:47;;;;;;;0.10;0.10;;;;;;;23.17;100.00;98966.16;5113575;28;20305;-56
2023/09/13 08:23:35;;;;;;;0.10;0.10;;;;;;;23.05;100.00;98965.72;5113679;28;20202;-56
2023/09/13 08:26:22;;;;;;;0.10;0.10;;;;;;;23.07;100.00;98968.25;5113314;28;20749;-57
2023/09/13 08:29:15;;;;;;;0.10;0.10;;;;;;;23.31;100.00;98968.00;5113556;28;20202;-56
2023/09/13 08:32:02;;;;;;;0.10;0.10;;;;;;;23.19;100.00;98965.94;5111901;28;20233;-56
2023/09/13 08:34:50;;;;;;;0.10;0.10;;;;;;;23.18;100.00;98972.38;5113315;28;20312;-56
2023/09/13 08:37:36;;;;;;;0.10;0.10;;;;;;;22.80;100.00;98975.88;5113516;28;20205;-56
2023/09/13 08:40:24;;;;;;;0.10;0.10;;;;;;;22.75;100.00;98989.06;5113283;28;20186;-57
2023/09/13 08:43:12;;;;;;;0.10;0.10;;;;;;;22.51;100.00;99013.56;5113043;28;20202;-57
2023/09/13 08:46:02;;;;;;;0.10;0.10;;;;;;;22.51;100.00;99019.78;5113136;28;20303;-56
2023/09/13 08:48:50;;;;;;;0.10;0.10;;;;;;;22.40;100.00;99016.66;5112102;28;20194;-56
2023/09/13 08:51:38;;;;;;;0.10;0.10;;;;;;;22.40;100.00;99016.66;5112873;28;20214;-56
2023/09/13 08:54:27;;;;;;;0.10;0.10;;;;;;;22.30;100.00;99030.38;5113283;28;20201;-56
2023/09/13 08:57:14;;;;;;;0.10;0.10;;;;;;;22.33;100.00;99039.97;5113233;28;20245;-56
2023/09/13 09:00:01;;;;;;;0.10;0.10;;;;;;;22.15;100.00;99037.50;5113134;28;20427;-56
2023/09/13 09:02:53;;;;;;;0.10;0.10;;;;;;;22.18;100.00;99032.59;5111857;28;20218;-56
2023/09/13 09:05:41;;;;;;;0.10;0.10;;;;;;;22.13;100.00;99040.38;5112989;28;20222;-56
2023/09/13 09:08:28;;;;;;;0.10;0.10;;;;;;;22.43;100.00;99054.09;5113173;28;20193;-56
2023/09/13 09:11:17;;;;;;;0.10;0.10;;;;;;;22.43;0.00;99054.09;5112975;28;20221;-57
2023/09/13 09:14:05;;;;;;;0.10;0.10;;;;;;;22.60;100.00;99052.16;5113002;28;20198;-56
2023/09/13 09:16:55;;;;;;;0.10;0.10;;;;;;;22.65;100.00;99050.56;5113067;28;20197;-56
2023/09/13 09:19:44;;;;;;;0.10;0.10;;;;;;;23.28;100.00;99048.66;5113079;28;20210;-56
2023/09/13 09:22:31;;;;;;;0.10;0.10;;;;;;;23.11;100.00;99042.53;5113130;28;20187;-56
2023/09/13 09:25:19;;;;;;;0.10;0.10;;;;;;;22.86;100.00;99052.66;5113041;28;20210;-56
2023/09/13 09:28:06;;;;;;;0.10;0.10;;;;;;;22.85;100.00;99051.81;5112990;28;20202;-56
2023/09/13 09:30:53;;;;;;;0.10;0.10;;;;;;;22.84;100.00;99043.91;5113021;28;20545;-56
2023/09/13 09:33:42;;;;;;;0.10;0.10;;;;;;;22.88;100.00;99047.09;5111641;28;20205;-56
2023/09/13 09:36:34;;;;;;;0.10;0.10;;;;;;;22.83;100.00;99044.91;5112999;28;20237;-56
2023/09/13 09:39:23;;;;;;;0.10;0.10;;;;;;;23.04;100.00;99047.81;5112842;28;20200;-57
2023/09/13 09:42:14;;;;;;;0.10;0.10;;;;;;;23.43;100.00;99044.94;5115038;28;20194;-56
2023/09/13 09:45:01;;;;;;;0.10;0.10;;;;;;;23.86;100.00;99041.69;5115574;28;20194;-56
2023/09/13 09:47:50;;;;;;;0.10;0.10;;;;;;;24.40;100.00;99044.06;5114822;28;20232;-56
2023/09/13 09:50:39;;;;;;;0.10;0.10;;;;;;;24.93;100.00;99037.41;5116532;28;20685;-56
2023/09/13 09:53:28;;;;;;;0.10;0.10;;;;;;;24.95;100.00;99031.78;5116592;28;20228;-56
2023/09/13 09:56:17;;;;;;;0.10;0.10;;;;;;;24.47;100.00;99029.59;5116363;28;20202;-57
2023/09/13 09:59:04;;;;;;;0.10;0.10;;;;;;;24.45;100.00;99030.81;5116440;28;20186;-57
2023/09/13 10:01:57;;;;;;;0.10;0.10;;;;;;;24.43;100.00;99035.59;5116423;28;20216;-57
2023/09/13 10:04:51;;;;;;;0.10;0.10;;;;;;;24.76;100.00;99039.50;5115948;28;20328;-57
2023/09/13 10:07:40;;;;;;;0.10;0.10;;;;;;;24.24;100.00;99037.84;5116222;28;20210;-57
2023/09/13 10:10:30;;;;;;;0.10;0.10;;;;;;;24.33;100.00;99035.91;5116407;28;20194;-57
2023/09/13 10:13:17;;;;;;;0.00;0.00;;;;;;;25.51;100.00;99040.03;5116241;28;20214;-57
2023/09/13 10:16:07;;;;;;;0.10;0.10;;;;;;;26.97;100.00;99050.59;5116173;28;20235;-57
2023/09/13 10:18:54;;;;;;;0.10;0.10;;;;;;;29.05;100.00;99046.25;5115034;28;20186;-56
2023/09/13 10:21:42;;;;;;;0.10;0.10;;;;;;;30.45;95.99;99035.69;5116038;28;20281;-57
2023/09/13 10:24:48;;;;;;;0.00;0.00;;;;;;;30.71;84.63;99043.59;5115965;28;20744;-57
2023/09/13 10:27:39;;;;;;;0.10;0.10;;;;;;;31.16;77.26;99050.50;5115783;28;20197;-57
2023/09/13 10:30:28;;;;;;;0.10;0.10;;;;;;;30.03;84.91;99054.66;5115832;28;20194;-57
2023/09/13 10:33:17;;;;;;;0.00;0.00;;;;;;;28.52;93.76;99051.97;5114091;28;20245;-57
2023/09/13 10:36:07;;;;;;;0.00;0.00;;;;;;;27.88;100.00;99058.19;5115729;28;20214;-57
2023/09/13 10:39:07;;;;;;;0.10;0.10;;;;;;;28.64;100.00;99063.00;5115646;28;20653;-57
2023/09/13 10:42:01;;;;;;;0.00;0.00;;;;;;;30.90;80.96;99057.22;5115615;28;20190;-58
2023/09/13 10:44:50;;;;;;;0.00;0.00;;;;;;;32.62;67.21;99048.72;5115711;28;20190;-57
2023/09/13 10:47:38;;;;;;;0.00;0.00;;;;;;;33.93;58.74;99054.94;5114216;28;20246;-58
2023/09/13 10:50:26;;;;;;;0.00;0.00;;;;;;;35.12;55.60;99065.25;5115495;28;20217;-57
2023/09/13 10:53:15;;;;;;;0.00;0.00;;;;;;;34.15;52.78;99060.47;5114187;28;20222;-57
2023/09/13 10:56:03;;;;;;;0.00;0.00;;;;;;;32.65;62.54;99059.25;5115288;28;20298;-57
2023/09/13 10:58:51;;;;;;;0.00;0.00;;;;;;;33.78;56.31;99066.53;5114233;28;20189;-57
2023/09/13 11:01:41;;;;;;;0.00;0.00;;;;;;;34.91;55.55;99066.97;5115301;28;20221;-55
2023/09/13 11:04:29;;;;;;;0.00;0.00;;;;;;;36.30;48.30;99061.53;5115083;28;20309;-58
2023/09/13 11:07:16;;;;;;;0.00;0.00;;;;;;;36.69;45.96;99062.81;5114891;28;20261;-58
2023/09/13 11:10:11;;;;;;;0.00;0.00;;;;;;;36.60;44.89;99060.84;5115190;28;20197;-57
2023/09/13 11:13:11;;;;;;;0.00;0.00;;;;;;;37.10;44.67;99064.88;5114684;28;20260;-58
2023/09/13 11:16:03;;;;;;;0.00;0.00;;;;;;;37.70;43.07;99050.25;5114846;28;20213;-58
2023/09/13 11:18:53;;;;;;;0.00;0.00;;;;;;;37.40;43.76;99056.63;5113462;28;20209;-58
2023/09/13 11:21:49;;;;;;;0.00;0.00;;;;;;;32.21;58.34;99058.81;5114317;28;20191;-57
2023/09/13 11:24:38;;;;;;;0.00;0.00;;;;;;;29.99;74.09;99061.63;5114739;28;20205;-57
2023/09/13 11:27:48;;;;;;;0.00;0.00;;;;;;;31.97;70.55;99065.44;5114778;28;20204;-57
2023/09/13 11:30:49;;;;;;;0.00;0.00;;;;;;;34.12;58.54;99061.00;5114714;28;20189;-57
2023/09/13 11:33:39;;;;;;;0.00;0.00;;;;;;;36.87;46.53;99066.22;5113003;28;20217;-58
2023/09/13 11:36:28;;;;;;;0.00;0.00;;;;;;;36.88;43.91;99071.47;5114293;28;20229;-57
2023/09/13 11:39:20;;;;;;;0.00;0.00;;;;;;;37.43;40.57;99069.06;5114513;28;20261;-57
2023/09/13 11:42:09;;;;;;;0.00;0.00;;;;;;;35.97;47.15;99077.31;5114425;28;20185;-58
2023/09/13 11:44:56;;;;;;;0.00;0.00;;;;;;;37.76;40.42;99074.06;5114241;28;20198;-57
2023/09/13 11:47:51;;;;;;;0.00;0.00;;;;;;;36.21;43.21;99065.88;5113158;28;20198;-57
2023/09/13 11:50:46;;;;;;;0.00;0.00;;;;;;;35.28;45.69;99072.59;5114273;28;20194;-57
2023/09/13 11:53:38;;;;;;;0.00;0.00;;;;;;;35.98;42.90;99072.63;5114236;28;20217;-58
2023/09/13 11:56:34;;;;;;;0.00;0.00;;;;;;;36.57;40.79;99075.16;5114186;28;20202;-58
2023/09/13 11:59:32;;;;;;;0.00;0.00;;;;;;;37.39;39.95;99073.50;5114058;28;20190;-57
2023/09/13 12:02:20;;;;;;;0.00;0.00;;;;;;;38.37;38.31;99070.34;5112671;28;20198;-58
2023/09/13 12:05:10;;;;;;;0.00;0.00;;;;;;;37.85;37.80;99077.09;5113553;28;20234;-58
2023/09/13 12:08:22;;;;;;;0.00;0.00;;;;;;;37.31;41.66;99079.56;5113971;28;20210;-57
2023/09/13 12:11:13;;;;;;;0.00;0.00;;;;;;;38.57;38.93;99077.75;5114104;28;20198;-58
2023/09/13 12:14:02;;;;;;;0.00;0.00;;;;;;;38.32;38.80;99078.69;5113346;28;20233;-58
2023/09/13 12:16:58;;;;;;;0.00;0.00;;;;;;;38.45;38.34;99083.63;5112357;28;20264;-58
2023/09/13 12:19:46;;;;;;;0.00;0.00;;;;;;;38.94;37.26;99080.09;5113866;28;20206;-57
2023/09/13 12:22:39;;;;;;;0.00;0.00;;;;;;;38.92;36.64;99079.56;5113814;28;20190;-58
2023/09/13 12:25:26;;;;;;;0.00;0.00;;;;;;;38.50;40.54;99083.59;5113705;28;20240;-58
2023/09/13 12:28:27;;;;;;;0.00;0.00;;;;;;;37.50;39.39;99078.75;5113644;28;20202;-57
2023/09/13 12:31:15;;;;;;;0.00;0.00;;;;;;;36.31;41.22;99080.56;5113489;28;20262;-57
2023/09/13 12:34:04;;;;;;;0.00;0.00;;;;;;;38.25;37.95;99092.81;5112015;28;20217;-57
2023/09/13 12:36:52;;;;;;;0.00;0.00;;;;;;;37.07;41.16;99082.84;5113366;28;20272;-58
2023/09/13 12:39:38;;;;;;;0.00;0.00;;;;;;;37.64;38.71;99080.94;5113492;28;20201;-57
2023/09/13 12:42:25;;;;;;;0.00;0.00;;;;;;;38.24;38.32;99069.03;5113433;28;20688;-58
2023/09/13 12:45:14;;;;;;;0.00;0.00;;;;;;;38.80;36.19;99081.81;5113141;28;20210;-58
2023/09/13 12:48:01;;;;;;;0.00;0.00;;;;;;;39.98;34.27;99080.69;5111700;28;20271;-57
2023/09/13 12:50:48;;;;;;;0.00;0.00;;;;;;;37.42;37.12;99079.28;5113468;28;20189;-58
2023/09/13 12:53:36;;;;;;;0.00;0.00;;;;;;;38.47;35.48;99075.03;5111886;28;20296;-58
2023/09/13 12:56:23;;;;;;;0.00;0.00;;;;;;;37.90;37.79;99079.03;5113216;28;20237;-58
2023/09/13 12:59:10;;;;;;;0.00;0.00;;;;;;;37.92;36.72;99076.81;5113234;28;20316;-55
2023/09/13 13:01:59;;;;;;;0.00;0.00;;;;;;;40.53;34.68;99074.84;5111860;28;20243;-55
2023/09/13 13:04:47;;;;;;;0.00;0.00;;;;;;;38.71;35.82;99078.84;5113106;28;20225;-55
2023/09/13 13:07:40;;;;;;;0.00;0.00;;;;;;;40.85;33.24;99074.16;5113126;28;20235;-56